createdAt,value
2024-03-04T00:02:29.019Z,62.05
2024-03-04T00:04:59.341Z,67.45
2024-03-04T00:07:29.292Z,61.55
2024-03-04T00:09:59.690Z,68.40
2024-03-04T00:12:30.225Z,64.10
2024-03-04T00:15:00.483Z,63.92
2024-03-04T00:17:31.817Z,68.38
2024-03-04T00:20:08.688Z,69.43
2024-03-04T00:22:39.485Z,67.53
2024-03-04T00:25:11.415Z,58.17
2024-03-04T00:27:41.617Z,62.15
2024-03-04T00:30:14.964Z,59.13
2024-03-04T00:32:45.313Z,57.30
2024-03-04T00:35:16.276Z,67.93
2024-03-04T00:37:46.700Z,55.05
2024-03-04T00:40:16.783Z,59.38
2024-03-04T00:42:46.989Z,53.47
2024-03-04T00:45:16.867Z,52.25
2024-03-04T00:47:50.201Z,50.22
2024-03-04T00:50:20.830Z,56.47
2024-03-04T00:52:51.085Z,64.70
2024-03-04T00:55:23.094Z,57.03
2024-03-04T00:57:54.274Z,51.10
2024-03-04T01:00:27.636Z,57.55
2024-03-04T01:02:57.770Z,51.80
2024-03-04T01:05:27.697Z,56.60
2024-03-04T01:07:57.811Z,61.95
2024-03-04T01:10:27.753Z,56.22
2024-03-04T01:12:58.084Z,66.20
2024-03-04T01:15:28.591Z,53.95
2024-03-04T01:17:59.546Z,54.83
2024-03-04T01:20:30.324Z,55.30
2024-03-04T01:23:00.233Z,55.67
2024-03-04T01:25:30.136Z,65.38
2024-03-04T01:28:00.806Z,59.15
2024-03-04T01:30:30.735Z,68.10
2024-03-04T01:33:02.197Z,58.50
2024-03-04T01:35:32.719Z,70.20
2024-03-04T01:38:02.904Z,64.63
2024-03-04T01:40:33.305Z,60.20
2024-03-04T01:43:03.281Z,58.70
2024-03-04T01:45:34.473Z,58.15
2024-03-04T01:48:07.269Z,63.70
2024-03-04T01:50:41.832Z,56.65
2024-03-04T01:53:12.738Z,57.00
2024-03-04T01:56:06.503Z,58.08
2024-03-04T01:58:41.862Z,52.28
2024-03-04T02:01:12.560Z,56.83
2024-03-04T02:03:42.614Z,55.50
2024-03-04T02:06:12.717Z,56.05
2024-03-04T02:08:42.905Z,54.20
2024-03-04T02:11:15.231Z,62.42
2024-03-04T02:13:45.399Z,56.15
2024-03-04T02:16:16.016Z,55.28
2024-03-04T02:18:46.760Z,52.45
2024-03-04T02:21:22.912Z,54.00
2024-03-04T02:23:53.192Z,44.38
2024-03-04T02:26:23.063Z,50.08
2024-03-04T02:28:53.065Z,46.33
2024-03-04T02:31:23.514Z,47.80
2024-03-04T02:33:54.915Z,42.65
2024-03-04T02:36:25.883Z,44.85
2024-03-04T02:38:56.406Z,43.88
2024-03-04T02:41:29.085Z,46.65
2024-03-04T02:43:59.132Z,46.22
2024-03-04T02:46:29.536Z,41.08
2024-03-04T02:49:00.145Z,46.50
2024-03-04T02:51:30.383Z,39.63
2024-03-04T02:54:01.220Z,44.88
2024-03-04T02:56:31.494Z,42.78
2024-03-04T02:59:01.676Z,49.38
2024-03-04T03:01:31.846Z,44.60
2024-03-04T03:04:01.779Z,45.55
2024-03-04T03:06:32.087Z,45.63
2024-03-04T03:09:03.191Z,47.00
2024-03-04T03:11:33.604Z,42.10
2024-03-04T03:14:03.729Z,43.92
2024-03-04T03:16:37.996Z,57.85
2024-03-04T03:19:07.881Z,64.53
2024-03-04T03:21:38.758Z,62.08
2024-03-04T03:24:08.710Z,45.60
2024-03-04T03:26:38.970Z,60.33
2024-03-04T03:29:09.390Z,54.28
2024-03-04T03:31:40.287Z,55.20
2024-03-04T03:34:10.828Z,51.92
2024-03-04T03:36:46.917Z,54.35
2024-03-04T03:39:17.540Z,47.17
2024-03-04T03:41:47.671Z,47.42
2024-03-04T03:44:17.800Z,49.53
2024-03-04T03:46:48.348Z,48.55
2024-03-04T03:49:19.431Z,43.83
2024-03-04T03:51:49.615Z,49.65
2024-03-04T03:54:19.406Z,51.85
2024-03-04T03:56:49.633Z,48.45
2024-03-04T03:59:19.782Z,50.22
2024-03-04T04:01:49.946Z,47.72
2024-03-04T04:04:20.566Z,53.58
2024-03-04T04:06:50.638Z,47.60
2024-03-04T04:09:20.548Z,50.97
2024-03-04T04:11:50.593Z,57.13
2024-03-04T04:14:20.489Z,49.50
2024-03-04T04:16:52.015Z,45.55
2024-03-04T04:19:22.358Z,48.00
2024-03-04T04:21:54.328Z,44.17
2024-03-04T04:24:24.551Z,45.58
2024-03-04T04:26:54.442Z,44.65
2024-03-04T04:29:24.625Z,45.65
2024-03-04T04:31:54.403Z,45.42
2024-03-04T04:34:24.979Z,45.67
2024-03-04T04:36:56.826Z,44.13
2024-03-04T04:39:28.704Z,50.20
2024-03-04T04:41:59.626Z,43.80
2024-03-04T04:44:29.940Z,47.42
2024-03-04T04:46:59.792Z,45.28
2024-03-04T04:49:29.882Z,51.65
2024-03-04T04:51:59.887Z,49.85
2024-03-04T04:54:30.217Z,46.75
2024-03-04T04:57:00.149Z,49.15
2024-03-04T04:59:30.353Z,49.05
2024-03-04T05:02:00.759Z,44.45
2024-03-04T05:04:43.875Z,55.15
2024-03-04T05:07:21.285Z,52.70
2024-03-04T05:09:51.341Z,46.53
2024-03-04T05:12:22.378Z,47.95
2024-03-04T05:14:53.161Z,49.75
2024-03-04T05:17:23.517Z,46.97
2024-03-04T05:19:53.454Z,47.58
2024-03-04T05:22:26.287Z,47.97
2024-03-04T05:24:58.613Z,48.03
2024-03-04T05:27:30.863Z,46.03
2024-03-04T05:30:01.665Z,47.97
2024-03-04T05:32:31.570Z,52.80
2024-03-04T05:35:02.681Z,50.47
2024-03-04T05:37:33.087Z,49.35
2024-03-04T05:40:02.986Z,48.35
2024-03-04T05:42:33.148Z,50.05
2024-03-04T05:45:03.017Z,49.28
2024-03-04T05:47:33.084Z,48.50
2024-03-04T05:50:02.935Z,54.00
2024-03-04T05:52:33.488Z,49.25
2024-03-04T05:55:03.763Z,48.97
2024-03-04T05:57:34.609Z,51.75
2024-03-04T06:00:14.705Z,48.67
2024-03-04T06:02:45.612Z,48.45
2024-03-04T06:05:16.784Z,49.10
2024-03-04T06:07:47.404Z,48.33
2024-03-04T06:10:18.662Z,48.58
2024-03-04T06:12:49.312Z,46.38
2024-03-04T06:15:19.216Z,48.65
2024-03-04T06:17:49.540Z,47.50
2024-03-04T06:20:19.552Z,47.70
2024-03-04T06:22:52.808Z,47.70
2024-03-04T06:25:23.600Z,47.28
2024-03-04T06:27:55.458Z,47.38
2024-03-04T06:30:26.423Z,46.95
2024-03-04T06:32:56.265Z,72.15
2024-03-04T06:35:26.736Z,47.47
2024-03-04T06:37:56.653Z,46.58
2024-03-04T06:40:27.734Z,45.10
2024-03-04T06:42:58.111Z,46.92
2024-03-04T06:45:28.860Z,45.05
2024-03-04T06:48:05.025Z,47.17
2024-03-04T06:50:38.042Z,46.58
2024-03-04T06:53:11.695Z,47.00
2024-03-04T06:55:42.126Z,49.17
2024-03-04T06:58:12.084Z,47.83
2024-03-04T07:00:43.234Z,48.25
2024-03-04T07:03:13.751Z,67.53
2024-03-04T07:05:43.527Z,47.05
2024-03-04T07:08:14.063Z,46.20
2024-03-04T07:10:47.958Z,45.53
2024-03-04T07:13:18.084Z,49.38
2024-03-04T07:15:53.947Z,44.50
2024-03-04T07:18:23.938Z,48.40
2024-03-04T07:20:53.732Z,46.40
2024-03-04T07:23:24.797Z,47.33
2024-03-04T07:25:55.549Z,47.05
2024-03-04T07:28:26.100Z,50.28
2024-03-04T07:30:56.675Z,46.78
2024-03-04T07:33:26.558Z,46.55
2024-03-04T07:35:56.489Z,49.25
2024-03-04T07:38:26.670Z,48.67
2024-03-04T07:40:58.004Z,46.42
2024-03-04T07:43:30.791Z,47.80
2024-03-04T07:46:00.966Z,45.38
2024-03-04T07:48:30.782Z,44.80
2024-03-04T07:51:01.172Z,43.83
2024-03-04T07:53:30.986Z,45.85
2024-03-04T07:56:01.324Z,51.20
2024-03-04T07:58:31.242Z,50.95
2024-03-04T08:01:01.962Z,47.40
2024-03-04T08:03:31.837Z,43.38
2024-03-04T08:06:02.837Z,46.72
2024-03-04T08:08:32.589Z,44.20
2024-03-04T08:11:03.584Z,43.08
2024-03-04T08:13:33.917Z,47.28
2024-03-04T08:16:04.324Z,48.33
2024-03-04T08:18:34.902Z,46.67
2024-03-04T08:21:05.334Z,44.10
2024-03-04T08:23:37.019Z,39.58
2024-03-04T08:26:07.985Z,42.05
2024-03-04T08:28:38.301Z,40.90
2024-03-04T08:31:09.335Z,37.22
2024-03-04T08:33:39.571Z,35.63
2024-03-04T08:36:11.069Z,34.13
2024-03-04T08:38:44.828Z,36.30
2024-03-04T08:41:15.328Z,37.17
2024-03-04T08:43:46.372Z,34.78
2024-03-04T08:46:19.867Z,44.80
2024-03-04T08:48:50.237Z,46.00
2024-03-04T08:51:23.954Z,44.75
2024-03-04T08:53:54.274Z,44.03
2024-03-04T08:56:25.161Z,44.67
2024-03-04T08:58:55.865Z,44.22
2024-03-04T09:01:27.723Z,49.00
2024-03-04T09:03:58.506Z,52.50
2024-03-04T09:06:28.584Z,51.15
2024-03-04T09:08:59.801Z,48.47
2024-03-04T09:11:30.101Z,48.08
2024-03-04T09:14:00.095Z,48.70
2024-03-04T09:16:30.218Z,59.13
2024-03-04T09:19:01.015Z,53.47
2024-03-04T09:21:31.138Z,52.15
2024-03-04T09:24:03.091Z,51.63
2024-03-04T09:26:33.324Z,48.30
2024-03-04T09:29:04.473Z,47.05
2024-03-04T09:31:36.384Z,52.83
2024-03-04T09:34:07.486Z,46.92
2024-03-04T09:36:37.317Z,50.55
2024-03-04T09:39:09.686Z,49.08
2024-03-04T09:41:41.582Z,52.97
2024-03-04T09:44:12.393Z,61.53
2024-03-04T09:46:44.782Z,50.30
2024-03-04T09:49:16.535Z,51.30
2024-03-04T09:51:50.255Z,56.75
2024-03-04T09:54:22.751Z,50.33
2024-03-04T09:56:54.102Z,52.70
2024-03-04T09:59:25.211Z,49.15
2024-03-04T10:01:56.194Z,53.53
2024-03-04T10:04:26.981Z,53.50
2024-03-04T10:06:58.538Z,65.15
2024-03-04T10:09:30.865Z,52.58
2024-03-04T10:12:05.613Z,59.63
2024-03-04T10:14:36.359Z,60.80
2024-03-04T10:17:06.934Z,61.40
2024-03-04T10:19:37.995Z,59.95
2024-03-04T10:22:09.916Z,47.90
2024-03-04T10:24:42.846Z,49.95
2024-03-04T10:27:14.775Z,50.50
2024-03-04T10:29:45.040Z,64.00
2024-03-04T10:32:20.096Z,52.55
2024-03-04T10:34:54.014Z,53.38
2024-03-04T10:37:24.249Z,63.65
2024-03-04T10:39:55.916Z,54.50
2024-03-04T10:42:26.562Z,56.83
2024-03-04T10:44:56.883Z,60.95
2024-03-04T10:47:29.185Z,61.03
2024-03-04T10:50:00.184Z,54.33
2024-03-04T10:52:31.153Z,55.80
2024-03-04T10:55:05.280Z,56.78
2024-03-04T10:57:37.206Z,62.53
2024-03-04T11:00:28.413Z,64.97
2024-03-04T11:03:20.678Z,69.80
2024-03-04T11:05:53.913Z,57.42
2024-03-04T11:08:48.475Z,65.85
2024-03-04T11:11:28.484Z,57.10
2024-03-04T11:14:22.574Z,62.60
2024-03-04T11:17:01.882Z,56.85
2024-03-04T11:19:55.966Z,57.22
2024-03-04T11:22:28.331Z,62.70
2024-03-04T11:25:00.185Z,60.20
2024-03-04T11:27:31.858Z,61.42
2024-03-04T11:30:03.439Z,57.22
2024-03-04T11:32:34.617Z,56.22
2024-03-04T11:35:10.637Z,63.13
2024-03-04T11:38:20.279Z,63.15
2024-03-04T11:40:58.967Z,63.15
2024-03-04T11:43:49.587Z,66.13
2024-03-04T11:46:23.296Z,66.43
2024-03-04T11:48:54.948Z,62.65
2024-03-04T11:51:46.304Z,61.08
2024-03-04T11:54:16.405Z,58.65
2024-03-04T11:56:46.988Z,112.03
2024-03-04T11:59:17.387Z,77.32
2024-03-04T12:01:48.196Z,61.55
2024-03-04T12:04:21.062Z,56.92
2024-03-04T12:06:51.369Z,68.82
2024-03-04T12:09:43.868Z,60.63
2024-03-04T12:12:16.202Z,73.93
2024-03-04T12:14:49.443Z,65.30
2024-03-04T12:17:19.640Z,62.60
2024-03-04T12:19:59.875Z,59.78
2024-03-04T12:22:33.511Z,61.83
2024-03-04T12:25:12.140Z,68.45
2024-03-04T12:27:42.825Z,70.40
2024-03-04T12:30:31.162Z,75.22
2024-03-04T12:33:04.761Z,67.75
2024-03-04T12:35:35.611Z,74.10
2024-03-04T12:38:09.367Z,76.80
2024-03-04T12:40:39.772Z,65.22
2024-03-04T12:43:12.887Z,67.43
2024-03-04T12:45:43.248Z,70.82
2024-03-04T12:48:14.434Z,66.88
2024-03-04T12:50:45.853Z,76.82
2024-03-04T12:53:17.404Z,68.20
2024-03-04T12:55:50.631Z,81.60
2024-03-04T12:58:20.732Z,73.45
2024-03-04T13:00:51.087Z,79.53
2024-03-04T13:03:21.393Z,73.97
2024-03-04T13:05:53.672Z,75.53
2024-03-04T13:08:24.255Z,69.95
2024-03-04T13:10:54.220Z,73.85
2024-03-04T13:13:24.414Z,77.03
2024-03-04T13:15:56.971Z,84.70
2024-03-04T13:18:28.724Z,75.22
2024-03-04T13:20:58.767Z,74.32
2024-03-04T13:23:28.582Z,82.28
2024-03-04T13:26:00.169Z,72.18
2024-03-04T13:28:30.310Z,74.72
2024-03-04T13:31:00.228Z,82.30
2024-03-04T13:33:30.500Z,95.80
2024-03-04T13:36:01.982Z,87.00
2024-03-04T13:38:34.297Z,82.00
2024-03-04T13:41:05.144Z,77.65
2024-03-04T13:43:36.693Z,73.63
2024-03-04T13:46:07.298Z,72.25
2024-03-04T13:48:38.472Z,74.95
2024-03-04T13:51:08.637Z,77.93
2024-03-04T13:53:40.209Z,75.20
2024-03-04T13:56:11.202Z,80.15
2024-03-04T13:58:41.310Z,76.85
2024-03-04T14:01:14.178Z,76.13
2024-03-04T14:03:44.604Z,81.05
2024-03-04T14:06:17.691Z,89.65
2024-03-04T14:08:48.589Z,86.97
2024-03-04T14:11:18.740Z,83.70
2024-03-04T14:13:49.057Z,90.10
2024-03-04T14:16:19.534Z,80.65
2024-03-04T14:18:49.912Z,83.20
2024-03-04T14:21:19.727Z,122.20
2024-03-04T14:23:50.114Z,88.22
2024-03-04T14:26:22.932Z,82.85
2024-03-04T14:28:53.146Z,76.88
2024-03-04T14:31:23.329Z,84.72
2024-03-04T14:33:53.833Z,86.75
2024-03-04T14:36:24.016Z,89.97
2024-03-04T14:38:54.357Z,102.55
2024-03-04T14:41:25.010Z,86.10
2024-03-04T14:43:55.491Z,80.07
2024-03-04T14:46:25.507Z,88.95
2024-03-04T14:48:56.584Z,84.78
2024-03-04T14:51:26.839Z,81.93
2024-03-04T14:53:56.839Z,91.18
2024-03-04T14:56:30.911Z,88.72
2024-03-04T14:59:03.948Z,85.75
2024-03-04T15:01:35.646Z,85.75
2024-03-04T15:04:07.738Z,79.47
2024-03-04T15:06:39.165Z,83.13
2024-03-04T15:09:11.488Z,82.20
2024-03-04T15:11:45.379Z,85.78
2024-03-04T15:14:15.625Z,86.90
2024-03-04T15:16:53.755Z,153.88
2024-03-04T15:19:25.304Z,82.00
2024-03-04T15:21:55.186Z,78.22
2024-03-04T15:24:25.375Z,76.95
2024-03-04T15:26:57.037Z,79.55
2024-03-04T15:29:27.393Z,78.38
2024-03-04T15:32:02.028Z,77.03
2024-03-04T15:34:33.028Z,81.28
2024-03-04T15:37:07.005Z,78.32
2024-03-04T15:39:37.405Z,77.28
2024-03-04T15:42:08.620Z,78.97
2024-03-04T15:44:42.045Z,72.80
2024-03-04T15:47:12.210Z,80.90
2024-03-04T15:49:42.388Z,82.68
2024-03-04T15:52:12.774Z,83.25
2024-03-04T15:54:44.353Z,84.03
2024-03-04T15:57:14.729Z,80.70
2024-03-04T15:59:44.584Z,75.30
2024-03-04T16:02:14.601Z,90.80
2024-03-04T16:04:48.846Z,94.65
2024-03-04T16:07:20.535Z,75.30
2024-03-04T16:09:50.821Z,75.32
2024-03-04T16:12:20.968Z,77.28
2024-03-04T16:14:51.465Z,75.88
2024-03-04T16:17:21.511Z,73.78
2024-03-04T16:19:51.990Z,79.10
2024-03-04T16:22:22.220Z,87.40
2024-03-04T16:24:53.668Z,77.90
2024-03-04T16:27:25.497Z,77.20
2024-03-04T16:29:55.960Z,76.43
2024-03-04T16:32:25.935Z,78.95
2024-03-04T16:34:56.382Z,78.22
2024-03-04T16:37:26.371Z,72.00
2024-03-04T16:39:57.053Z,75.45
2024-03-04T16:42:28.257Z,76.13
2024-03-04T16:44:58.402Z,86.45
2024-03-04T16:47:28.376Z,84.00
2024-03-04T16:49:58.722Z,77.75
2024-03-04T16:52:28.819Z,153.93
2024-03-04T16:54:59.843Z,77.85
2024-03-04T16:57:29.945Z,74.18
2024-03-04T16:59:59.857Z,75.13
2024-03-04T17:02:33.039Z,73.45
2024-03-04T17:05:03.384Z,73.75
2024-03-04T17:07:33.563Z,80.05
2024-03-04T17:10:03.776Z,73.20
2024-03-04T17:12:33.681Z,74.82
2024-03-04T17:15:04.048Z,75.30
2024-03-04T17:17:34.444Z,76.22
2024-03-04T17:20:11.202Z,74.32
2024-03-04T17:22:41.685Z,84.80
2024-03-04T17:25:11.900Z,76.57
2024-03-04T17:27:44.431Z,73.60
2024-03-04T17:30:15.223Z,76.35
2024-03-04T17:32:45.833Z,77.03
2024-03-04T17:35:17.439Z,79.75
2024-03-04T17:37:48.922Z,80.47
2024-03-04T17:40:19.334Z,74.13
2024-03-04T17:42:49.203Z,77.93
2024-03-04T17:45:19.673Z,78.82
2024-03-04T17:47:49.693Z,81.07
2024-03-04T17:50:19.906Z,84.10
2024-03-04T17:52:49.935Z,78.43
2024-03-04T17:55:20.369Z,79.47
2024-03-04T17:57:50.362Z,81.57
2024-03-04T18:00:21.219Z,82.80
2024-03-04T18:02:52.237Z,81.60
2024-03-04T18:05:22.514Z,84.80
2024-03-04T18:07:53.526Z,83.30
2024-03-04T18:10:24.427Z,83.72
2024-03-04T18:12:54.620Z,87.43
2024-03-04T18:15:24.430Z,83.97
2024-03-04T18:17:54.528Z,84.50
2024-03-04T18:20:24.382Z,89.93
2024-03-04T18:22:54.446Z,82.80
2024-03-04T18:25:24.386Z,94.25
2024-03-04T18:27:54.914Z,89.47
2024-03-04T18:30:24.712Z,82.45
2024-03-04T18:32:54.864Z,84.75
2024-03-04T18:35:24.795Z,81.55
2024-03-04T18:37:54.905Z,82.93
2024-03-04T18:40:25.105Z,90.45
2024-03-04T18:42:55.197Z,83.72
2024-03-04T18:45:25.166Z,87.82
2024-03-04T18:47:56.689Z,82.18
2024-03-04T18:50:28.160Z,88.38
2024-03-04T18:52:58.705Z,86.30
2024-03-04T18:55:28.930Z,91.03
2024-03-04T18:57:59.216Z,90.53
2024-03-04T19:00:30.283Z,85.10
2024-03-04T19:03:00.529Z,84.85
2024-03-04T19:05:33.634Z,85.63
2024-03-04T19:08:06.231Z,88.20
2024-03-04T19:10:36.373Z,91.45
2024-03-04T19:13:06.611Z,85.07
2024-03-04T19:15:36.871Z,86.50
2024-03-04T19:18:07.072Z,86.25
2024-03-04T19:20:41.607Z,85.95
2024-03-04T19:23:11.621Z,90.90
2024-03-04T19:25:41.514Z,92.80
2024-03-04T19:28:14.250Z,89.70
2024-03-04T19:30:46.477Z,89.55
2024-03-04T19:33:16.763Z,84.75
2024-03-04T19:35:47.746Z,81.22
2024-03-04T19:38:18.081Z,82.68
2024-03-04T19:40:48.167Z,88.38
2024-03-04T19:43:18.365Z,83.53
2024-03-04T19:45:48.253Z,85.28
2024-03-04T19:48:18.547Z,83.18
2024-03-04T19:50:51.499Z,90.82
2024-03-04T19:53:21.701Z,85.47
2024-03-04T19:55:51.756Z,91.30
2024-03-04T19:58:21.824Z,96.40
2024-03-04T20:00:51.778Z,93.10
2024-03-04T20:03:22.059Z,107.47
2024-03-04T20:05:52.459Z,107.68
2024-03-04T20:08:22.753Z,90.00
2024-03-04T20:10:52.858Z,100.00
2024-03-04T20:13:23.013Z,99.63
2024-03-04T20:15:52.968Z,101.95
2024-03-04T20:18:23.264Z,100.65
2024-03-04T20:20:53.156Z,107.10
2024-03-04T20:23:23.568Z,101.28
2024-03-04T20:25:53.821Z,103.10
2024-03-04T20:28:24.578Z,107.43
2024-03-04T20:30:55.032Z,97.05
2024-03-04T20:33:25.852Z,108.25
2024-03-04T20:35:55.782Z,101.18
2024-03-04T20:38:25.770Z,94.95
2024-03-04T20:40:55.795Z,99.10
2024-03-04T20:43:25.985Z,93.15
2024-03-04T20:45:55.859Z,98.43
2024-03-04T20:48:30.638Z,103.00
2024-03-04T20:51:00.913Z,99.80
2024-03-04T20:53:31.337Z,101.18
2024-03-04T20:56:01.639Z,107.50
2024-03-04T20:58:31.635Z,105.82
2024-03-04T21:01:01.765Z,100.13
2024-03-04T21:03:31.658Z,101.18
2024-03-04T21:06:03.242Z,98.78
2024-03-04T21:08:34.269Z,98.60
2024-03-04T21:11:04.659Z,97.43
2024-03-04T21:13:34.619Z,99.18
2024-03-04T21:16:04.620Z,95.85
2024-03-04T21:18:34.510Z,96.25
2024-03-04T21:21:04.746Z,92.22
2024-03-04T21:23:34.644Z,93.13
2024-03-04T21:26:04.892Z,91.13
2024-03-04T21:28:35.471Z,90.47
2024-03-04T21:31:06.463Z,92.18
2024-03-04T21:33:36.432Z,85.78
2024-03-04T21:36:06.458Z,85.38
2024-03-04T21:38:36.668Z,87.05
2024-03-04T21:41:06.580Z,89.15
2024-03-04T21:43:36.682Z,85.07
2024-03-04T21:46:06.607Z,86.32
2024-03-04T21:48:38.829Z,89.63
2024-03-04T21:51:09.122Z,86.45
2024-03-04T21:53:39.264Z,85.55
2024-03-04T21:56:13.082Z,88.85
2024-03-04T21:58:43.109Z,94.70
2024-03-04T22:01:26.149Z,91.07
2024-03-04T22:03:56.470Z,95.45
2024-03-04T22:06:26.413Z,98.15
2024-03-04T22:08:57.645Z,98.60
2024-03-04T22:11:28.022Z,101.10
2024-03-04T22:13:58.016Z,96.90
2024-03-04T22:16:28.959Z,95.30
2024-03-04T22:18:58.796Z,96.45
2024-03-04T22:21:28.850Z,93.03
2024-03-04T22:23:58.738Z,88.15
2024-03-04T22:26:28.782Z,93.20
2024-03-04T22:28:59.884Z,93.75
2024-03-04T22:31:30.240Z,94.45
2024-03-04T22:34:00.182Z,96.28
2024-03-04T22:36:30.218Z,90.55
2024-03-04T22:39:00.005Z,102.50
2024-03-04T22:41:30.369Z,98.55
2024-03-04T22:44:00.412Z,99.35
2024-03-04T22:46:30.486Z,95.68
2024-03-04T22:49:00.267Z,92.47
2024-03-04T22:51:31.369Z,88.57
2024-03-04T22:54:01.411Z,88.00
2024-03-04T22:56:31.927Z,99.32
2024-03-04T22:59:02.166Z,91.93
2024-03-04T23:01:33.014Z,94.45
2024-03-04T23:04:03.052Z,99.53
2024-03-04T23:06:33.154Z,106.95
2024-03-04T23:09:06.695Z,99.38
2024-03-04T23:11:36.915Z,103.80
2024-03-04T23:14:06.888Z,100.47
2024-03-04T23:16:37.148Z,104.47
2024-03-04T23:19:08.231Z,109.32
2024-03-04T23:21:38.396Z,108.38
2024-03-04T23:24:08.555Z,101.25
2024-03-04T23:26:38.500Z,109.20
2024-03-04T23:29:09.620Z,103.70
2024-03-04T23:31:39.740Z,99.20
2024-03-04T23:34:12.962Z,102.82
2024-03-04T23:36:43.209Z,111.20
2024-03-04T23:39:14.159Z,106.50
2024-03-04T23:41:44.310Z,105.75
2024-03-04T23:44:14.201Z,120.30
2024-03-04T23:46:44.302Z,131.52
2024-03-04T23:49:14.390Z,115.85
2024-03-04T23:51:45.374Z,114.28
2024-03-04T23:54:16.771Z,108.45
2024-03-04T23:56:46.972Z,112.22
2024-03-04T23:59:16.777Z,110.07
